sensor_id;sensor_type;location;lat;lon;timestamp;temperature;humidity
62259;DHT22;48241;48.824;10.102;2022-07-01T00:00:35;18.10;93.90
62259;DHT22;48241;48.824;10.102;2022-07-01T00:03:01;18.30;93.40
62259;DHT22;48241;48.824;10.102;2022-07-01T00:05:26;18.30;92.50
62259;DHT22;48241;48.824;10.102;2022-07-01T00:07:52;18.20;92.50
62259;DHT22;48241;48.824;10.102;2022-07-01T00:10:17;18.20;93.00
62259;DHT22;48241;48.824;10.102;2022-07-01T00:12:43;18.20;92.90
62259;DHT22;48241;48.824;10.102;2022-07-01T00:15:09;18.30;92.40
62259;DHT22;48241;48.824;10.102;2022-07-01T00:17:35;18.30;92.30
62259;DHT22;48241;48.824;10.102;2022-07-01T00:20:02;18.10;92.00
62259;DHT22;48241;48.824;10.102;2022-07-01T00:22:28;18.10;92.10
62259;DHT22;48241;48.824;10.102;2022-07-01T00:24:54;17.90;92.10
62259;DHT22;48241;48.824;10.102;2022-07-01T00:27:20;17.80;92.50
62259;DHT22;48241;48.824;10.102;2022-07-01T00:29:45;17.40;92.90
62259;DHT22;48241;48.824;10.102;2022-07-01T00:32:11;17.10;93.80
62259;DHT22;48241;48.824;10.102;2022-07-01T00:34:37;17.10;93.80
62259;DHT22;48241;48.824;10.102;2022-07-01T00:37:02;16.90;93.60
62259;DHT22;48241;48.824;10.102;2022-07-01T00:39:28;16.60;94.00
62259;DHT22;48241;48.824;10.102;2022-07-01T00:42:00;16.40;94.70
62259;DHT22;48241;48.824;10.102;2022-07-01T00:44:29;16.40;94.30
62259;DHT22;48241;48.824;10.102;2022-07-01T00:46:56;16.10;94.70
62259;DHT22;48241;48.824;10.102;2022-07-01T00:49:23;16.10;95.30
62259;DHT22;48241;48.824;10.102;2022-07-01T00:51:51;16.20;95.00
62259;DHT22;48241;48.824;10.102;2022-07-01T00:54:18;16.20;94.30
62259;DHT22;48241;48.824;10.102;2022-07-01T00:56:44;16.20;94.60
62259;DHT22;48241;48.824;10.102;2022-07-01T00:59:09;16.30;94.40
62259;DHT22;48241;48.824;10.102;2022-07-01T01:01:35;16.30;94.00
62259;DHT22;48241;48.824;10.102;2022-07-01T01:04:01;16.30;94.20
62259;DHT22;48241;48.824;10.102;2022-07-01T01:06:27;16.10;94.70
62259;DHT22;48241;48.824;10.102;2022-07-01T01:08:53;16.10;94.40
62259;DHT22;48241;48.824;10.102;2022-07-01T01:11:19;16.20;94.40
62259;DHT22;48241;48.824;10.102;2022-07-01T01:13:45;16.30;94.10
62259;DHT22;48241;48.824;10.102;2022-07-01T01:16:21;16.20;93.60
62259;DHT22;48241;48.824;10.102;2022-07-01T01:18:47;16.10;94.10
62259;DHT22;48241;48.824;10.102;2022-07-01T01:21:12;16.10;94.20
62259;DHT22;48241;48.824;10.102;2022-07-01T01:23:38;16.20;94.00
62259;DHT22;48241;48.824;10.102;2022-07-01T01:26:04;16.50;93.60
62259;DHT22;48241;48.824;10.102;2022-07-01T01:28:39;16.40;93.20
62259;DHT22;48241;48.824;10.102;2022-07-01T01:31:05;16.30;93.20
62259;DHT22;48241;48.824;10.102;2022-07-01T01:33:30;16.20;93.00
62259;DHT22;48241;48.824;10.102;2022-07-01T01:35:56;16.20;92.90
62259;DHT22;48241;48.824;10.102;2022-07-01T01:38:22;16.10;92.50
62259;DHT22;48241;48.824;10.102;2022-07-01T01:40:47;16.10;92.80
62259;DHT22;48241;48.824;10.102;2022-07-01T01:43:14;16.00;93.00
62259;DHT22;48241;48.824;10.102;2022-07-01T01:45:39;16.10;92.80
62259;DHT22;48241;48.824;10.102;2022-07-01T01:48:06;16.10;92.60
62259;DHT22;48241;48.824;10.102;2022-07-01T01:50:31;16.40;92.30
62259;DHT22;48241;48.824;10.102;2022-07-01T01:52:57;16.50;91.90
62259;DHT22;48241;48.824;10.102;2022-07-01T01:55:23;16.60;91.60
62259;DHT22;48241;48.824;10.102;2022-07-01T01:57:48;16.50;92.00
62259;DHT22;48241;48.824;10.102;2022-07-01T02:00:14;16.70;91.40
62259;DHT22;48241;48.824;10.102;2022-07-01T02:02:40;16.80;91.20
62259;DHT22;48241;48.824;10.102;2022-07-01T02:05:08;16.70;90.80
62259;DHT22;48241;48.824;10.102;2022-07-01T02:07:35;16.70;91.20
62259;DHT22;48241;48.824;10.102;2022-07-01T02:10:01;16.70;91.20
62259;DHT22;48241;48.824;10.102;2022-07-01T02:12:27;16.90;91.10
62259;DHT22;48241;48.824;10.102;2022-07-01T02:14:52;16.80;91.00
62259;DHT22;48241;48.824;10.102;2022-07-01T02:17:18;16.80;91.30
62259;DHT22;48241;48.824;10.102;2022-07-01T02:19:43;16.50;91.40
62259;DHT22;48241;48.824;10.102;2022-07-01T02:22:09;16.60;91.50
62259;DHT22;48241;48.824;10.102;2022-07-01T02:24:34;16.80;91.40
62259;DHT22;48241;48.824;10.102;2022-07-01T02:27:00;16.70;90.70
62259;DHT22;48241;48.824;10.102;2022-07-01T02:29:25;16.70;90.70
62259;DHT22;48241;48.824;10.102;2022-07-01T02:31:51;16.50;90.90
62259;DHT22;48241;48.824;10.102;2022-07-01T02:34:17;16.30;90.90
62259;DHT22;48241;48.824;10.102;2022-07-01T02:36:42;16.00;91.50
62259;DHT22;48241;48.824;10.102;2022-07-01T02:39:08;15.90;92.10
62259;DHT22;48241;48.824;10.102;2022-07-01T02:41:33;15.90;91.80
62259;DHT22;48241;48.824;10.102;2022-07-01T02:44:19;15.90;92.00
62259;DHT22;48241;48.824;10.102;2022-07-01T02:46:44;15.80;92.00
62259;DHT22;48241;48.824;10.102;2022-07-01T02:49:10;15.60;92.10
62259;DHT22;48241;48.824;10.102;2022-07-01T02:51:35;15.50;92.70
62259;DHT22;48241;48.824;10.102;2022-07-01T02:54:01;15.40;92.90
62259;DHT22;48241;48.824;10.102;2022-07-01T02:56:26;15.40;93.20
62259;DHT22;48241;48.824;10.102;2022-07-01T02:58:52;15.40;92.80
62259;DHT22;48241;48.824;10.102;2022-07-01T03:01:18;15.40;92.70
62259;DHT22;48241;48.824;10.102;2022-07-01T03:03:43;15.30;92.80
62259;DHT22;48241;48.824;10.102;2022-07-01T03:06:09;15.20;92.60
62259;DHT22;48241;48.824;10.102;2022-07-01T03:08:34;15.30;92.10
62259;DHT22;48241;48.824;10.102;2022-07-01T03:11:00;15.30;92.30
62259;DHT22;48241;48.824;10.102;2022-07-01T03:13:25;15.30;92.10
62259;DHT22;48241;48.824;10.102;2022-07-01T03:15:51;15.20;92.60
62259;DHT22;48241;48.824;10.102;2022-07-01T03:18:16;15.20;92.00
62259;DHT22;48241;48.824;10.102;2022-07-01T03:20:42;15.10;92.60
62259;DHT22;48241;48.824;10.102;2022-07-01T03:23:07;15.40;92.40
62259;DHT22;48241;48.824;10.102;2022-07-01T03:25:33;15.20;92.00
62259;DHT22;48241;48.824;10.102;2022-07-01T03:28:01;15.30;92.20
62259;DHT22;48241;48.824;10.102;2022-07-01T03:30:28;15.20;92.20
62259;DHT22;48241;48.824;10.102;2022-07-01T03:32:54;15.30;92.30
62259;DHT22;48241;48.824;10.102;2022-07-01T03:35:19;15.30;91.80
62259;DHT22;48241;48.824;10.102;2022-07-01T03:38:04;15.30;91.70
62259;DHT22;48241;48.824;10.102;2022-07-01T03:40:31;15.20;91.70
62259;DHT22;48241;48.824;10.102;2022-07-01T03:42:57;15.20;91.40
62259;DHT22;48241;48.824;10.102;2022-07-01T03:45:22;15.50;91.50
62259;DHT22;48241;48.824;10.102;2022-07-01T03:47:49;15.60;91.20
62259;DHT22;48241;48.824;10.102;2022-07-01T03:50:16;15.70;91.10
62259;DHT22;48241;48.824;10.102;2022-07-01T03:52:42;15.90;90.80
62259;DHT22;48241;48.824;10.102;2022-07-01T03:55:11;15.90;91.10
62259;DHT22;48241;48.824;10.102;2022-07-01T03:57:37;16.00;90.80
62259;DHT22;48241;48.824;10.102;2022-07-01T04:00:03;16.20;90.40
62259;DHT22;48241;48.824;10.102;2022-07-01T04:02:28;16.00;90.60
62259;DHT22;48241;48.824;10.102;2022-07-01T04:04:54;16.00;90.50
62259;DHT22;48241;48.824;10.102;2022-07-01T04:07:20;16.00;90.50
62259;DHT22;48241;48.824;10.102;2022-07-01T04:09:47;16.00;90.70
62259;DHT22;48241;48.824;10.102;2022-07-01T04:12:13;15.80;90.50
62259;DHT22;48241;48.824;10.102;2022-07-01T04:14:38;15.70;90.90
62259;DHT22;48241;48.824;10.102;2022-07-01T04:17:04;15.30;91.60
62259;DHT22;48241;48.824;10.102;2022-07-01T04:19:30;15.30;92.00
62259;DHT22;48241;48.824;10.102;2022-07-01T04:21:56;15.00;92.40
62259;DHT22;48241;48.824;10.102;2022-07-01T04:24:40;15.10;92.40
62259;DHT22;48241;48.824;10.102;2022-07-01T04:27:06;15.30;91.70
62259;DHT22;48241;48.824;10.102;2022-07-01T04:29:31;15.20;91.70
62259;DHT22;48241;48.824;10.102;2022-07-01T04:31:57;15.10;92.00
62259;DHT22;48241;48.824;10.102;2022-07-01T04:34:24;14.90;92.80
62259;DHT22;48241;48.824;10.102;2022-07-01T04:36:49;15.00;92.60
62259;DHT22;48241;48.824;10.102;2022-07-01T04:39:15;15.20;92.40
62259;DHT22;48241;48.824;10.102;2022-07-01T04:41:41;15.20;92.20
62259;DHT22;48241;48.824;10.102;2022-07-01T04:44:24;15.30;92.30
62259;DHT22;48241;48.824;10.102;2022-07-01T04:46:50;15.30;91.90
62259;DHT22;48241;48.824;10.102;2022-07-01T04:49:16;15.40;92.00
62259;DHT22;48241;48.824;10.102;2022-07-01T04:51:41;15.40;91.70
62259;DHT22;48241;48.824;10.102;2022-07-01T04:54:07;15.40;91.20
62259;DHT22;48241;48.824;10.102;2022-07-01T04:56:34;15.50;91.90
62259;DHT22;48241;48.824;10.102;2022-07-01T04:59:00;15.60;91.10
62259;DHT22;48241;48.824;10.102;2022-07-01T05:01:26;15.70;90.90
62259;DHT22;48241;48.824;10.102;2022-07-01T05:03:53;15.80;90.70
62259;DHT22;48241;48.824;10.102;2022-07-01T05:06:19;15.90;90.30
62259;DHT22;48241;48.824;10.102;2022-07-01T05:08:44;15.70;90.50
62259;DHT22;48241;48.824;10.102;2022-07-01T05:11:10;16.00;90.70
62259;DHT22;48241;48.824;10.102;2022-07-01T05:13:36;16.00;90.90
62259;DHT22;48241;48.824;10.102;2022-07-01T05:16:02;16.20;90.40
62259;DHT22;48241;48.824;10.102;2022-07-01T05:18:28;16.20;90.30
62259;DHT22;48241;48.824;10.102;2022-07-01T05:21:12;16.40;88.60
62259;DHT22;48241;48.824;10.102;2022-07-01T05:23:56;16.30;87.50
62259;DHT22;48241;48.824;10.102;2022-07-01T05:26:22;16.20;89.30
62259;DHT22;48241;48.824;10.102;2022-07-01T05:28:50;16.30;89.00
62259;DHT22;48241;48.824;10.102;2022-07-01T05:31:15;16.50;88.30
62259;DHT22;48241;48.824;10.102;2022-07-01T05:33:41;16.50;87.80
62259;DHT22;48241;48.824;10.102;2022-07-01T05:36:07;16.70;86.80
62259;DHT22;48241;48.824;10.102;2022-07-01T05:38:32;16.70;86.90
62259;DHT22;48241;48.824;10.102;2022-07-01T05:40:58;16.60;85.60
62259;DHT22;48241;48.824;10.102;2022-07-01T05:43:24;16.40;87.20
62259;DHT22;48241;48.824;10.102;2022-07-01T05:45:49;16.30;87.10
62259;DHT22;48241;48.824;10.102;2022-07-01T05:48:15;16.20;88.60
62259;DHT22;48241;48.824;10.102;2022-07-01T05:50:40;16.30;87.90
62259;DHT22;48241;48.824;10.102;2022-07-01T05:53:07;16.20;87.30
62259;DHT22;48241;48.824;10.102;2022-07-01T05:55:32;16.10;89.40
62259;DHT22;48241;48.824;10.102;2022-07-01T05:57:58;16.20;88.60
62259;DHT22;48241;48.824;10.102;2022-07-01T06:00:24;16.40;88.20
62259;DHT22;48241;48.824;10.102;2022-07-01T06:02:49;16.40;88.20
62259;DHT22;48241;48.824;10.102;2022-07-01T06:05:15;16.50;88.00
62259;DHT22;48241;48.824;10.102;2022-07-01T06:07:41;16.70;88.80
62259;DHT22;48241;48.824;10.102;2022-07-01T06:10:10;16.50;87.10
62259;DHT22;48241;48.824;10.102;2022-07-01T06:12:36;16.80;87.50
62259;DHT22;48241;48.824;10.102;2022-07-01T06:15:02;16.80;85.90
62259;DHT22;48241;48.824;10.102;2022-07-01T06:17:28;16.70;85.20
62259;DHT22;48241;48.824;10.102;2022-07-01T06:19:54;16.90;85.40
62259;DHT22;48241;48.824;10.102;2022-07-01T06:22:19;17.10;84.70
62259;DHT22;48241;48.824;10.102;2022-07-01T06:24:46;16.90;85.00
62259;DHT22;48241;48.824;10.102;2022-07-01T06:27:12;16.80;83.40
62259;DHT22;48241;48.824;10.102;2022-07-01T06:29:38;16.90;83.60
62259;DHT22;48241;48.824;10.102;2022-07-01T06:32:05;17.10;83.90
62259;DHT22;48241;48.824;10.102;2022-07-01T06:34:30;16.90;83.40
62259;DHT22;48241;48.824;10.102;2022-07-01T06:36:56;16.50;84.60
62259;DHT22;48241;48.824;10.102;2022-07-01T06:39:28;16.40;86.40
62259;DHT22;48241;48.824;10.102;2022-07-01T06:41:54;16.50;87.40
62259;DHT22;48241;48.824;10.102;2022-07-01T06:44:19;16.50;88.10
62259;DHT22;48241;48.824;10.102;2022-07-01T06:46:46;16.30;87.50
62259;DHT22;48241;48.824;10.102;2022-07-01T06:49:11;16.00;87.80
62259;DHT22;48241;48.824;10.102;2022-07-01T06:51:37;16.00;88.80
62259;DHT22;48241;48.824;10.102;2022-07-01T06:54:03;16.00;89.00
62259;DHT22;48241;48.824;10.102;2022-07-01T06:56:28;15.90;89.10
62259;DHT22;48241;48.824;10.102;2022-07-01T06:58:54;15.90;89.60
62259;DHT22;48241;48.824;10.102;2022-07-01T07:01:20;16.00;89.10
62259;DHT22;48241;48.824;10.102;2022-07-01T07:03:45;16.00;89.80
62259;DHT22;48241;48.824;10.102;2022-07-01T07:06:11;16.10;89.30
62259;DHT22;48241;48.824;10.102;2022-07-01T07:08:37;16.10;89.60
62259;DHT22;48241;48.824;10.102;2022-07-01T07:11:03;16.10;89.60
62259;DHT22;48241;48.824;10.102;2022-07-01T07:13:29;16.10;89.40
62259;DHT22;48241;48.824;10.102;2022-07-01T07:15:55;16.10;88.60
62259;DHT22;48241;48.824;10.102;2022-07-01T07:18:21;16.00;89.20
62259;DHT22;48241;48.824;10.102;2022-07-01T07:20:46;15.90;89.10
62259;DHT22;48241;48.824;10.102;2022-07-01T07:23:15;15.90;89.20
62259;DHT22;48241;48.824;10.102;2022-07-01T07:25:40;16.10;89.40
62259;DHT22;48241;48.824;10.102;2022-07-01T07:28:06;16.20;88.70
62259;DHT22;48241;48.824;10.102;2022-07-01T07:30:31;16.10;89.70
62259;DHT22;48241;48.824;10.102;2022-07-01T07:32:57;16.20;89.10
62259;DHT22;48241;48.824;10.102;2022-07-01T07:35:23;16.30;88.00
62259;DHT22;48241;48.824;10.102;2022-07-01T07:37:49;16.30;88.00
62259;DHT22;48241;48.824;10.102;2022-07-01T07:40:14;16.40;87.50
62259;DHT22;48241;48.824;10.102;2022-07-01T07:42:45;16.60;87.60
62259;DHT22;48241;48.824;10.102;2022-07-01T07:45:12;16.50;87.10
62259;DHT22;48241;48.824;10.102;2022-07-01T07:47:42;16.50;86.50
62259;DHT22;48241;48.824;10.102;2022-07-01T07:50:09;16.30;87.30
62259;DHT22;48241;48.824;10.102;2022-07-01T07:52:35;16.40;87.60
62259;DHT22;48241;48.824;10.102;2022-07-01T07:55:01;16.40;87.60
62259;DHT22;48241;48.824;10.102;2022-07-01T07:57:27;16.60;88.40
62259;DHT22;48241;48.824;10.102;2022-07-01T07:59:53;16.60;88.40
62259;DHT22;48241;48.824;10.102;2022-07-01T08:02:18;16.80;87.00
62259;DHT22;48241;48.824;10.102;2022-07-01T08:04:44;16.80;85.90
62259;DHT22;48241;48.824;10.102;2022-07-01T08:07:09;16.80;86.70
62259;DHT22;48241;48.824;10.102;2022-07-01T08:09:35;16.90;85.70
62259;DHT22;48241;48.824;10.102;2022-07-01T08:12:01;16.70;84.90
62259;DHT22;48241;48.824;10.102;2022-07-01T08:14:27;16.60;87.40
62259;DHT22;48241;48.824;10.102;2022-07-01T08:16:52;16.50;87.10
62259;DHT22;48241;48.824;10.102;2022-07-01T08:19:18;16.50;87.10
62259;DHT22;48241;48.824;10.102;2022-07-01T08:21:44;16.50;87.50
62259;DHT22;48241;48.824;10.102;2022-07-01T08:24:10;16.60;88.10
62259;DHT22;48241;48.824;10.102;2022-07-01T08:26:36;16.60;87.70
62259;DHT22;48241;48.824;10.102;2022-07-01T08:29:01;16.50;86.20
62259;DHT22;48241;48.824;10.102;2022-07-01T08:31:27;16.30;87.70
62259;DHT22;48241;48.824;10.102;2022-07-01T08:33:52;16.40;85.70
62259;DHT22;48241;48.824;10.102;2022-07-01T08:36:18;16.30;87.90
62259;DHT22;48241;48.824;10.102;2022-07-01T08:38:44;16.30;87.50
62259;DHT22;48241;48.824;10.102;2022-07-01T08:41:09;16.50;87.60
62259;DHT22;48241;48.824;10.102;2022-07-01T08:43:35;16.40;88.20
62259;DHT22;48241;48.824;10.102;2022-07-01T08:46:02;16.50;88.30
62259;DHT22;48241;48.824;10.102;2022-07-01T08:48:28;16.30;88.90
62259;DHT22;48241;48.824;10.102;2022-07-01T08:50:54;16.10;89.60
62259;DHT22;48241;48.824;10.102;2022-07-01T08:53:20;16.40;89.90
62259;DHT22;48241;48.824;10.102;2022-07-01T08:55:46;16.40;87.50
62259;DHT22;48241;48.824;10.102;2022-07-01T08:58:31;16.40;88.40
62259;DHT22;48241;48.824;10.102;2022-07-01T09:01:25;16.60;88.10
62259;DHT22;48241;48.824;10.102;2022-07-01T09:03:56;16.70;85.40
62259;DHT22;48241;48.824;10.102;2022-07-01T09:06:30;16.70;84.10
62259;DHT22;48241;48.824;10.102;2022-07-01T09:09:17;16.60;85.00
62259;DHT22;48241;48.824;10.102;2022-07-01T09:11:50;16.60;84.30
62259;DHT22;48241;48.824;10.102;2022-07-01T09:14:25;16.50;85.70
62259;DHT22;48241;48.824;10.102;2022-07-01T09:16:56;16.50;87.80
62259;DHT22;48241;48.824;10.102;2022-07-01T09:19:24;16.50;86.60
62259;DHT22;48241;48.824;10.102;2022-07-01T09:21:51;16.40;87.50
62259;DHT22;48241;48.824;10.102;2022-07-01T09:24:31;16.40;87.20
62259;DHT22;48241;48.824;10.102;2022-07-01T09:29:59;16.20;89.50
62259;DHT22;48241;48.824;10.102;2022-07-01T09:32:24;16.30;89.10
62259;DHT22;48241;48.824;10.102;2022-07-01T09:34:52;16.40;88.80
62259;DHT22;48241;48.824;10.102;2022-07-01T09:37:19;16.70;87.90
62259;DHT22;48241;48.824;10.102;2022-07-01T09:39:53;16.80;88.00
62259;DHT22;48241;48.824;10.102;2022-07-01T09:42:20;16.80;89.90
62259;DHT22;48241;48.824;10.102;2022-07-01T09:44:57;16.90;89.20
62259;DHT22;48241;48.824;10.102;2022-07-01T09:47:25;16.90;87.80
62259;DHT22;48241;48.824;10.102;2022-07-01T09:49:51;16.80;87.20
62259;DHT22;48241;48.824;10.102;2022-07-01T09:52:17;16.90;86.50
62259;DHT22;48241;48.824;10.102;2022-07-01T09:54:47;16.80;86.30
62259;DHT22;48241;48.824;10.102;2022-07-01T09:57:14;16.70;87.50
62259;DHT22;48241;48.824;10.102;2022-07-01T09:59:39;16.80;87.80
62259;DHT22;48241;48.824;10.102;2022-07-01T10:02:08;17.00;87.60
62259;DHT22;48241;48.824;10.102;2022-07-01T10:04:35;17.10;86.10
62259;DHT22;48241;48.824;10.102;2022-07-01T10:07:22;17.30;86.40
62259;DHT22;48241;48.824;10.102;2022-07-01T10:12:46;17.10;86.30
62259;DHT22;48241;48.824;10.102;2022-07-01T10:15:17;17.20;85.10
62259;DHT22;48241;48.824;10.102;2022-07-01T10:17:46;17.10;85.50
62259;DHT22;48241;48.824;10.102;2022-07-01T10:20:17;17.20;85.60
62259;DHT22;48241;48.824;10.102;2022-07-01T10:22:44;17.00;87.60
62259;DHT22;48241;48.824;10.102;2022-07-01T10:25:40;17.00;87.50
62259;DHT22;48241;48.824;10.102;2022-07-01T10:28:29;17.00;87.40
62259;DHT22;48241;48.824;10.102;2022-07-01T10:31:16;17.10;87.50
62259;DHT22;48241;48.824;10.102;2022-07-01T10:33:50;16.90;86.70
62259;DHT22;48241;48.824;10.102;2022-07-01T10:36:19;16.70;88.70
62259;DHT22;48241;48.824;10.102;2022-07-01T10:44:20;16.70;87.70
62259;DHT22;48241;48.824;10.102;2022-07-01T10:52:06;16.70;88.50
62259;DHT22;48241;48.824;10.102;2022-07-01T10:59:46;16.90;87.90
62259;DHT22;48241;48.824;10.102;2022-07-01T11:02:36;16.90;87.70
62259;DHT22;48241;48.824;10.102;2022-07-01T11:05:10;17.00;87.30
62259;DHT22;48241;48.824;10.102;2022-07-01T11:07:39;17.10;86.40
62259;DHT22;48241;48.824;10.102;2022-07-01T11:10:07;17.00;88.10
62259;DHT22;48241;48.824;10.102;2022-07-01T11:12:32;17.10;87.40
62259;DHT22;48241;48.824;10.102;2022-07-01T11:14:59;17.10;86.30
62259;DHT22;48241;48.824;10.102;2022-07-01T11:17:27;17.10;86.00
62259;DHT22;48241;48.824;10.102;2022-07-01T11:19:55;16.80;86.90
62259;DHT22;48241;48.824;10.102;2022-07-01T11:22:31;16.80;86.50
62259;DHT22;48241;48.824;10.102;2022-07-01T11:24:58;16.90;87.50
62259;DHT22;48241;48.824;10.102;2022-07-01T11:27:25;16.90;88.00
62259;DHT22;48241;48.824;10.102;2022-07-01T11:30:08;16.90;86.50
62259;DHT22;48241;48.824;10.102;2022-07-01T11:32:39;16.80;86.80
62259;DHT22;48241;48.824;10.102;2022-07-01T11:35:08;16.80;85.50
62259;DHT22;48241;48.824;10.102;2022-07-01T11:37:52;16.50;86.70
62259;DHT22;48241;48.824;10.102;2022-07-01T11:40:47;16.60;86.90
62259;DHT22;48241;48.824;10.102;2022-07-01T11:43:26;16.80;86.60
62259;DHT22;48241;48.824;10.102;2022-07-01T11:45:53;16.70;86.20
62259;DHT22;48241;48.824;10.102;2022-07-01T11:48:40;16.60;87.80
62259;DHT22;48241;48.824;10.102;2022-07-01T11:51:18;16.60;87.70
62259;DHT22;48241;48.824;10.102;2022-07-01T11:53:48;16.80;87.40
62259;DHT22;48241;48.824;10.102;2022-07-01T11:56:14;17.00;87.40
62259;DHT22;48241;48.824;10.102;2022-07-01T11:58:51;16.90;86.50
62259;DHT22;48241;48.824;10.102;2022-07-01T12:01:31;16.80;86.50
62259;DHT22;48241;48.824;10.102;2022-07-01T12:04:00;17.00;86.50
62259;DHT22;48241;48.824;10.102;2022-07-01T12:06:26;17.10;85.80
62259;DHT22;48241;48.824;10.102;2022-07-01T12:08:52;16.90;86.60
62259;DHT22;48241;48.824;10.102;2022-07-01T12:11:19;16.80;86.80
62259;DHT22;48241;48.824;10.102;2022-07-01T12:13:47;16.70;86.60
62259;DHT22;48241;48.824;10.102;2022-07-01T12:16:14;16.90;86.70
62259;DHT22;48241;48.824;10.102;2022-07-01T12:18:51;16.80;86.70
62259;DHT22;48241;48.824;10.102;2022-07-01T12:21:16;16.60;86.70
62259;DHT22;48241;48.824;10.102;2022-07-01T12:23:42;16.60;87.20
62259;DHT22;48241;48.824;10.102;2022-07-01T12:26:07;16.50;87.40
62259;DHT22;48241;48.824;10.102;2022-07-01T12:28:39;16.50;87.90
62259;DHT22;48241;48.824;10.102;2022-07-01T12:31:09;16.50;87.50
62259;DHT22;48241;48.824;10.102;2022-07-01T12:33:39;16.50;87.90
62259;DHT22;48241;48.824;10.102;2022-07-01T12:36:06;16.40;89.00
62259;DHT22;48241;48.824;10.102;2022-07-01T12:38:32;16.40;89.10
62259;DHT22;48241;48.824;10.102;2022-07-01T12:40:59;16.40;88.00
62259;DHT22;48241;48.824;10.102;2022-07-01T12:43:25;16.50;88.00
62259;DHT22;48241;48.824;10.102;2022-07-01T12:45:55;16.80;88.70
62259;DHT22;48241;48.824;10.102;2022-07-01T12:48:21;16.90;88.70
62259;DHT22;48241;48.824;10.102;2022-07-01T12:50:46;17.10;85.80
62259;DHT22;48241;48.824;10.102;2022-07-01T12:53:18;17.30;84.90
62259;DHT22;48241;48.824;10.102;2022-07-01T12:55:46;17.50;85.90
62259;DHT22;48241;48.824;10.102;2022-07-01T12:58:17;17.60;83.80
62259;DHT22;48241;48.824;10.102;2022-07-01T13:00:45;17.80;83.80
62259;DHT22;48241;48.824;10.102;2022-07-01T13:03:12;17.80;83.30
62259;DHT22;48241;48.824;10.102;2022-07-01T13:05:39;17.70;83.50
62259;DHT22;48241;48.824;10.102;2022-07-01T13:08:06;17.80;84.00
62259;DHT22;48241;48.824;10.102;2022-07-01T13:10:32;17.60;84.10
62259;DHT22;48241;48.824;10.102;2022-07-01T13:12:58;17.70;83.60
62259;DHT22;48241;48.824;10.102;2022-07-01T13:15:24;17.90;84.60
62259;DHT22;48241;48.824;10.102;2022-07-01T13:17:51;18.20;80.60
62259;DHT22;48241;48.824;10.102;2022-07-01T13:20:16;18.60;81.10
62259;DHT22;48241;48.824;10.102;2022-07-01T13:22:43;18.80;81.50
62259;DHT22;48241;48.824;10.102;2022-07-01T13:25:10;19.30;78.60
62259;DHT22;48241;48.824;10.102;2022-07-01T13:27:36;19.20;75.40
62259;DHT22;48241;48.824;10.102;2022-07-01T13:30:07;19.60;74.00
62259;DHT22;48241;48.824;10.102;2022-07-01T13:32:34;20.40;72.90
62259;DHT22;48241;48.824;10.102;2022-07-01T13:35:00;21.00;72.10
62259;DHT22;48241;48.824;10.102;2022-07-01T13:37:26;21.30;69.90
62259;DHT22;48241;48.824;10.102;2022-07-01T13:39:52;21.70;68.80
62259;DHT22;48241;48.824;10.102;2022-07-01T13:42:17;22.00;65.30
62259;DHT22;48241;48.824;10.102;2022-07-01T13:44:43;22.40;65.90
62259;DHT22;48241;48.824;10.102;2022-07-01T13:47:08;22.70;61.80
62259;DHT22;48241;48.824;10.102;2022-07-01T13:49:36;23.20;61.10
62259;DHT22;48241;48.824;10.102;2022-07-01T13:52:02;23.40;56.30
62259;DHT22;48241;48.824;10.102;2022-07-01T13:54:27;23.60;56.60
62259;DHT22;48241;48.824;10.102;2022-07-01T13:56:53;23.60;56.20
62259;DHT22;48241;48.824;10.102;2022-07-01T13:59:18;23.50;58.20
62259;DHT22;48241;48.824;10.102;2022-07-01T14:01:44;23.80;57.00
62259;DHT22;48241;48.824;10.102;2022-07-01T14:04:10;23.60;53.80
62259;DHT22;48241;48.824;10.102;2022-07-01T14:06:37;23.00;55.40
62259;DHT22;48241;48.824;10.102;2022-07-01T14:09:03;22.70;59.00
62259;DHT22;48241;48.824;10.102;2022-07-01T14:11:28;22.10;59.80
62259;DHT22;48241;48.824;10.102;2022-07-01T14:13:54;22.00;60.50
62259;DHT22;48241;48.824;10.102;2022-07-01T14:16:20;22.00;60.50
62259;DHT22;48241;48.824;10.102;2022-07-01T14:18:45;21.90;61.60
62259;DHT22;48241;48.824;10.102;2022-07-01T14:21:11;21.70;61.00
62259;DHT22;48241;48.824;10.102;2022-07-01T14:23:37;21.70;61.40
62259;DHT22;48241;48.824;10.102;2022-07-01T14:26:03;21.70;59.90
62259;DHT22;48241;48.824;10.102;2022-07-01T14:28:28;21.60;61.40
62259;DHT22;48241;48.824;10.102;2022-07-01T14:30:54;21.80;62.50
62259;DHT22;48241;48.824;10.102;2022-07-01T14:33:21;22.00;63.40
62259;DHT22;48241;48.824;10.102;2022-07-01T14:35:46;22.30;61.40
62259;DHT22;48241;48.824;10.102;2022-07-01T14:38:12;22.50;57.00
62259;DHT22;48241;48.824;10.102;2022-07-01T14:40:39;22.40;61.70
62259;DHT22;48241;48.824;10.102;2022-07-01T14:43:05;22.40;64.00
62259;DHT22;48241;48.824;10.102;2022-07-01T14:45:30;22.10;61.80
62259;DHT22;48241;48.824;10.102;2022-07-01T14:47:56;22.00;63.30
62259;DHT22;48241;48.824;10.102;2022-07-01T14:50:22;21.90;63.00
62259;DHT22;48241;48.824;10.102;2022-07-01T14:52:48;21.60;63.50
62259;DHT22;48241;48.824;10.102;2022-07-01T14:55:34;21.50;60.40
62259;DHT22;48241;48.824;10.102;2022-07-01T14:58:20;21.30;63.90
62259;DHT22;48241;48.824;10.102;2022-07-01T15:00:46;20.90;64.10
62259;DHT22;48241;48.824;10.102;2022-07-01T15:03:12;20.90;63.10
62259;DHT22;48241;48.824;10.102;2022-07-01T15:05:37;21.10;63.40
62259;DHT22;48241;48.824;10.102;2022-07-01T15:08:03;21.10;62.90
62259;DHT22;48241;48.824;10.102;2022-07-01T15:10:29;21.00;65.30
62259;DHT22;48241;48.824;10.102;2022-07-01T15:12:54;20.80;62.40
62259;DHT22;48241;48.824;10.102;2022-07-01T15:15:20;20.80;62.60
62259;DHT22;48241;48.824;10.102;2022-07-01T15:17:46;20.80;62.40
62259;DHT22;48241;48.824;10.102;2022-07-01T15:20:12;20.80;65.20
62259;DHT22;48241;48.824;10.102;2022-07-01T15:22:39;21.00;64.30
62259;DHT22;48241;48.824;10.102;2022-07-01T15:25:05;21.00;61.80
62259;DHT22;48241;48.824;10.102;2022-07-01T15:27:30;20.90;65.90
62259;DHT22;48241;48.824;10.102;2022-07-01T15:29:56;21.10;62.80
62259;DHT22;48241;48.824;10.102;2022-07-01T15:32:22;20.90;61.30
62259;DHT22;48241;48.824;10.102;2022-07-01T15:34:48;21.10;61.80
62259;DHT22;48241;48.824;10.102;2022-07-01T15:37:14;21.00;62.10
62259;DHT22;48241;48.824;10.102;2022-07-01T15:39:39;21.10;61.10